createdAt,value
2023-08-20T00:01:34.537Z,24.23
2023-08-20T00:04:01.531Z,24.01
2023-08-20T00:06:28.660Z,24.58
2023-08-20T00:08:55.450Z,24.52
2023-08-20T00:11:22.225Z,24.63
2023-08-20T00:13:48.994Z,24.82
2023-08-20T00:16:16.068Z,24.77
2023-08-20T00:18:46.163Z,24.65
2023-08-20T00:21:15.225Z,24.49
2023-08-20T00:23:42.201Z,24.19
2023-08-20T00:26:09.449Z,23.95
2023-08-20T00:28:38.054Z,23.86
2023-08-20T00:31:04.995Z,23.51
2023-08-20T00:33:33.291Z,23.55
2023-08-20T00:36:00.047Z,23.35
2023-08-20T00:38:27.138Z,23.22
2023-08-20T00:40:54.424Z,23.26
2023-08-20T00:43:21.614Z,23.21
2023-08-20T00:45:48.441Z,23.21
2023-08-20T00:48:15.957Z,22.78
2023-08-20T00:50:42.989Z,22.72
2023-08-20T00:53:11.705Z,22.90
2023-08-20T00:55:38.658Z,23.39
2023-08-20T00:58:06.100Z,23.88
2023-08-20T01:00:33.148Z,24.05
2023-08-20T01:03:00.191Z,24.05
2023-08-20T01:05:27.305Z,23.95
2023-08-20T01:08:11.182Z,24.21
2023-08-20T01:11:10.512Z,24.30
2023-08-20T01:13:37.322Z,24.36
2023-08-20T01:16:04.473Z,24.14
2023-08-20T01:18:31.304Z,24.27
2023-08-20T01:21:03.616Z,24.19
2023-08-20T01:24:12.896Z,24.39
2023-08-20T01:27:08.225Z,24.34
2023-08-20T01:29:35.739Z,24.24
2023-08-20T01:32:06.104Z,24.02
2023-08-20T01:34:32.902Z,23.84
2023-08-20T01:36:59.624Z,23.65
2023-08-20T01:39:26.370Z,23.74
2023-08-20T01:41:53.196Z,23.63
2023-08-20T01:44:19.903Z,23.38
2023-08-20T01:46:47.891Z,23.19
2023-08-20T01:49:14.703Z,23.09
2023-08-20T01:51:41.551Z,23.05
2023-08-20T01:54:08.362Z,22.94
2023-08-20T01:56:37.241Z,22.83
2023-08-20T01:59:04.136Z,22.72
2023-08-20T02:01:31.068Z,22.53
2023-08-20T02:03:57.980Z,22.57
2023-08-20T02:06:24.823Z,22.32
2023-08-20T02:08:51.910Z,21.85
2023-08-20T02:11:18.695Z,22.20
2023-08-20T02:13:51.729Z,22.57
2023-08-20T02:16:18.446Z,22.52
2023-08-20T02:18:45.274Z,22.35
2023-08-20T02:21:12.273Z,22.43
2023-08-20T02:23:42.310Z,22.49
2023-08-20T02:26:09.516Z,22.47
2023-08-20T02:28:36.416Z,22.59
2023-08-20T02:31:07.209Z,22.60
2023-08-20T02:33:33.992Z,22.62
2023-08-20T02:36:04.688Z,22.60
2023-08-20T02:38:32.302Z,22.65
2023-08-20T02:41:09.045Z,22.67
2023-08-20T02:43:35.808Z,22.71
2023-08-20T02:46:03.703Z,22.61
2023-08-20T02:48:31.138Z,22.54
2023-08-20T02:50:57.929Z,22.50
2023-08-20T02:53:25.093Z,22.53
2023-08-20T02:55:52.086Z,22.62
2023-08-20T02:58:18.830Z,22.54
2023-08-20T03:00:46.305Z,22.70
2023-08-20T03:03:13.791Z,22.69
2023-08-20T03:05:46.566Z,22.80
2023-08-20T03:08:15.694Z,22.54
2023-08-20T03:10:42.579Z,22.83
2023-08-20T03:13:09.344Z,23.28
2023-08-20T03:15:36.066Z,23.79
2023-08-20T03:18:03.018Z,24.39
2023-08-20T03:20:32.079Z,24.69
2023-08-20T03:22:59.345Z,25.18
2023-08-20T03:25:26.482Z,25.43
2023-08-20T03:27:53.296Z,25.54
2023-08-20T03:30:23.277Z,25.74
2023-08-20T03:32:50.682Z,25.72
2023-08-20T03:35:17.950Z,25.60
2023-08-20T03:37:45.197Z,26.05
2023-08-20T03:40:12.281Z,26.81
2023-08-20T03:42:39.145Z,26.99
2023-08-20T03:45:06.439Z,26.87
2023-08-20T03:47:35.911Z,26.66
2023-08-20T03:50:02.877Z,26.84
2023-08-20T03:52:29.616Z,27.08
2023-08-20T03:54:56.704Z,27.01
2023-08-20T03:57:23.570Z,27.20
2023-08-20T03:59:50.236Z,26.96
2023-08-20T04:02:17.085Z,26.46
2023-08-20T04:04:43.951Z,26.87
2023-08-20T04:07:10.625Z,26.83
2023-08-20T04:09:37.844Z,27.26
2023-08-20T04:12:05.679Z,27.24
2023-08-20T04:14:32.442Z,27.26
2023-08-20T04:16:59.306Z,26.93
2023-08-20T04:19:26.333Z,26.50
2023-08-20T04:21:55.509Z,27.07
2023-08-20T04:24:22.485Z,27.38
2023-08-20T04:26:49.785Z,27.70
2023-08-20T04:29:16.556Z,28.03
2023-08-20T04:31:43.332Z,28.25
2023-08-20T04:34:10.146Z,27.51
2023-08-20T04:36:37.117Z,28.34
2023-08-20T04:39:05.882Z,27.90
2023-08-20T04:41:32.808Z,28.84
2023-08-20T04:43:59.679Z,28.55
2023-08-20T04:46:26.566Z,28.13
2023-08-20T04:48:53.576Z,28.05
2023-08-20T04:51:20.344Z,27.67
2023-08-20T04:53:48.616Z,28.93
2023-08-20T04:56:15.357Z,29.75
2023-08-20T04:58:42.147Z,29.18
2023-08-20T05:01:10.081Z,28.84
2023-08-20T05:03:36.990Z,28.54
2023-08-20T05:06:04.376Z,29.48
2023-08-20T05:08:31.161Z,29.38
2023-08-20T05:11:01.118Z,28.96
2023-08-20T05:13:27.922Z,30.01
2023-08-20T05:15:54.625Z,30.86
2023-08-20T05:18:21.353Z,29.42
2023-08-20T05:20:48.323Z,29.30
2023-08-20T05:23:15.125Z,28.77
2023-08-20T05:25:41.998Z,28.25
2023-08-20T05:28:08.851Z,28.09
2023-08-20T05:30:35.928Z,28.36
2023-08-20T05:33:03.048Z,28.65
2023-08-20T05:35:29.962Z,28.69
2023-08-20T05:38:00.059Z,28.64
2023-08-20T05:40:26.862Z,28.88
2023-08-20T05:42:53.833Z,28.83
2023-08-20T05:45:22.139Z,28.75
2023-08-20T05:47:48.872Z,28.52
2023-08-20T05:50:15.872Z,28.65
2023-08-20T05:52:42.698Z,28.54
2023-08-20T05:55:09.602Z,28.68
2023-08-20T05:57:38.092Z,28.62
2023-08-20T06:00:08.273Z,28.40
2023-08-20T06:02:35.243Z,28.47
2023-08-20T06:05:02.278Z,28.18
2023-08-20T06:07:29.074Z,28.38
2023-08-20T06:10:01.993Z,28.79
2023-08-20T06:12:28.650Z,29.27
2023-08-20T06:14:56.610Z,29.45
2023-08-20T06:17:23.339Z,29.51
2023-08-20T06:19:52.805Z,29.56
2023-08-20T06:22:19.843Z,29.55
2023-08-20T06:24:46.596Z,29.74
2023-08-20T06:27:13.644Z,29.78
2023-08-20T06:29:40.457Z,29.85
2023-08-20T06:32:07.470Z,29.74
2023-08-20T06:34:37.696Z,29.58
2023-08-20T06:37:04.548Z,29.91
2023-08-20T06:39:31.646Z,30.02
2023-08-20T06:41:58.660Z,30.01
2023-08-20T06:44:25.751Z,29.59
2023-08-20T06:46:52.713Z,29.33
2023-08-20T06:49:19.971Z,29.50
2023-08-20T06:51:46.955Z,29.33
2023-08-20T06:54:15.669Z,29.23
2023-08-20T06:56:42.632Z,29.74
2023-08-20T06:59:09.430Z,29.89
2023-08-20T07:01:36.162Z,29.93
2023-08-20T07:04:04.613Z,29.99
2023-08-20T07:06:31.696Z,29.56
2023-08-20T07:08:58.458Z,29.88
2023-08-20T07:11:25.404Z,29.30
2023-08-20T07:13:56.476Z,29.48
2023-08-20T07:16:23.401Z,29.01
2023-08-20T07:18:50.278Z,29.72
2023-08-20T07:21:19.319Z,29.82
2023-08-20T07:23:46.431Z,30.13
2023-08-20T07:26:13.542Z,29.74
2023-08-20T07:29:00.837Z,30.02
2023-08-20T07:31:33.269Z,29.64
2023-08-20T07:34:05.704Z,29.71
2023-08-20T07:36:33.305Z,29.75
2023-08-20T07:39:02.352Z,30.30
2023-08-20T07:41:29.509Z,30.37
2023-08-20T07:43:56.314Z,30.47
2023-08-20T07:46:23.166Z,30.00
2023-08-20T07:48:50.023Z,29.75
2023-08-20T07:51:17.179Z,29.89
2023-08-20T07:53:44.028Z,29.88
2023-08-20T07:56:10.815Z,30.37
2023-08-20T07:58:37.836Z,29.96
2023-08-20T08:01:04.663Z,30.20
2023-08-20T08:03:31.721Z,30.61
2023-08-20T08:05:58.796Z,30.33
2023-08-20T08:08:28.261Z,30.16
2023-08-20T08:10:55.172Z,30.33
2023-08-20T08:13:23.813Z,30.69
2023-08-20T08:15:54.025Z,30.30
2023-08-20T08:18:21.687Z,30.54
2023-08-20T08:20:48.517Z,30.88
2023-08-20T08:23:15.650Z,30.25
2023-08-20T08:25:42.885Z,30.30
2023-08-20T08:28:09.778Z,30.65
2023-08-20T08:30:36.833Z,30.62
2023-08-20T08:33:06.247Z,30.18
2023-08-20T08:35:33.460Z,30.72
2023-08-20T08:38:00.277Z,30.94
2023-08-20T08:40:30.521Z,30.43
2023-08-20T08:42:57.720Z,30.82
2023-08-20T08:45:24.592Z,31.57
2023-08-20T08:47:52.466Z,31.86
2023-08-20T08:50:19.316Z,32.27
2023-08-20T08:52:52.138Z,31.93
2023-08-20T08:55:23.206Z,32.20
2023-08-20T08:57:50.217Z,31.52
2023-08-20T09:00:17.423Z,31.71
2023-08-20T09:02:44.438Z,31.72
2023-08-20T09:05:11.368Z,31.66
2023-08-20T09:07:46.506Z,31.09
2023-08-20T09:10:13.497Z,31.52
2023-08-20T09:12:40.813Z,31.23
2023-08-20T09:15:12.316Z,31.44
2023-08-20T09:17:39.363Z,31.41
2023-08-20T09:20:06.968Z,31.35
2023-08-20T09:22:33.909Z,30.83
2023-08-20T09:25:01.968Z,31.09
2023-08-20T09:27:31.557Z,31.13
2023-08-20T09:29:59.384Z,31.37
2023-08-20T09:32:30.562Z,31.67
2023-08-20T09:34:57.797Z,30.87
2023-08-20T09:37:25.760Z,31.19
2023-08-20T09:39:52.538Z,31.25
2023-08-20T09:42:19.588Z,31.83
2023-08-20T09:44:50.310Z,30.94
2023-08-20T09:47:19.932Z,31.62
2023-08-20T09:49:48.758Z,32.10
2023-08-20T09:52:49.992Z,32.19
2023-08-20T09:55:23.528Z,32.47
2023-08-20T09:57:51.091Z,32.75
2023-08-20T10:00:17.925Z,32.66
2023-08-20T10:02:45.534Z,32.83
2023-08-20T10:05:13.717Z,32.75
2023-08-20T10:07:40.771Z,32.63
2023-08-20T10:10:09.441Z,32.59
2023-08-20T10:12:37.368Z,32.15
2023-08-20T10:15:08.314Z,31.78
2023-08-20T10:17:36.001Z,32.15
2023-08-20T10:20:06.797Z,31.93
2023-08-20T10:22:36.855Z,31.91
2023-08-20T10:25:10.338Z,32.52
2023-08-20T10:27:39.656Z,32.55
2023-08-20T10:30:16.485Z,32.80
2023-08-20T10:32:53.563Z,32.83
2023-08-20T10:35:29.144Z,32.70
2023-08-20T10:38:14.088Z,33.22
2023-08-20T10:40:55.663Z,32.76
2023-08-20T10:43:36.042Z,33.24
2023-08-20T10:46:22.729Z,32.88
2023-08-20T10:48:50.552Z,32.02
2023-08-20T10:51:19.011Z,32.00
2023-08-20T10:54:01.489Z,32.12
2023-08-20T10:57:00.349Z,31.89
2023-08-20T10:59:34.275Z,31.95
2023-08-20T11:02:01.724Z,31.77
2023-08-20T11:04:34.122Z,31.40
2023-08-20T11:07:05.987Z,31.05
2023-08-20T11:09:33.084Z,30.96
2023-08-20T11:12:00.275Z,31.16
2023-08-20T11:14:28.652Z,31.53
2023-08-20T11:16:55.565Z,31.15
2023-08-20T11:19:24.119Z,31.63
2023-08-20T11:21:51.628Z,31.31
2023-08-20T11:24:22.166Z,31.73
2023-08-20T11:26:49.482Z,31.50
2023-08-20T11:29:21.451Z,31.74
2023-08-20T11:31:49.602Z,31.91
2023-08-20T11:34:17.024Z,31.77
2023-08-20T11:36:43.842Z,31.92
2023-08-20T11:39:10.781Z,31.94
2023-08-20T11:41:39.122Z,32.31
2023-08-20T11:44:06.322Z,32.14
2023-08-20T11:46:33.358Z,32.60
2023-08-20T11:49:01.958Z,32.48
2023-08-20T11:51:34.818Z,32.67
2023-08-20T11:54:01.686Z,32.69
2023-08-20T11:56:29.036Z,32.75
2023-08-20T11:59:00.652Z,32.89
2023-08-20T12:01:27.652Z,32.08
2023-08-20T12:03:54.665Z,31.94
2023-08-20T12:06:22.400Z,31.80
2023-08-20T12:08:49.448Z,31.84
2023-08-20T12:11:16.165Z,31.92
2023-08-20T12:13:43.044Z,32.33
2023-08-20T12:16:12.679Z,32.46
2023-08-20T12:18:40.480Z,32.49
2023-08-20T12:21:11.092Z,32.62
2023-08-20T12:23:37.850Z,32.09
2023-08-20T12:26:05.061Z,32.33
2023-08-20T12:28:31.879Z,32.37
2023-08-20T12:31:01.582Z,32.97
2023-08-20T12:33:29.449Z,33.03
2023-08-20T12:35:56.761Z,32.43
2023-08-20T12:38:25.868Z,33.19
2023-08-20T12:40:57.235Z,33.42
2023-08-20T12:43:26.721Z,33.61
2023-08-20T12:45:53.641Z,33.42
2023-08-20T12:48:20.344Z,32.69
2023-08-20T12:50:47.798Z,33.17
2023-08-20T12:53:14.644Z,33.07
2023-08-20T12:55:41.490Z,33.09
2023-08-20T12:58:08.365Z,33.11
2023-08-20T13:00:35.072Z,33.11
2023-08-20T13:03:07.888Z,32.81
2023-08-20T13:05:35.326Z,32.71
2023-08-20T13:08:02.436Z,32.81
2023-08-20T13:10:31.101Z,32.64
2023-08-20T13:13:01.717Z,32.95
2023-08-20T13:15:28.911Z,33.07
2023-08-20T13:17:56.860Z,33.39
2023-08-20T13:20:25.270Z,32.80
2023-08-20T13:22:53.086Z,32.87
2023-08-20T13:25:23.680Z,33.04
2023-08-20T13:27:53.142Z,32.99
2023-08-20T13:30:23.038Z,33.12
2023-08-20T13:32:50.750Z,33.13
2023-08-20T13:35:17.751Z,33.27
2023-08-20T13:37:44.524Z,33.53
2023-08-20T13:40:11.734Z,33.54
2023-08-20T13:42:39.119Z,33.52
2023-08-20T13:45:06.960Z,33.49
2023-08-20T13:47:33.889Z,33.75
2023-08-20T13:50:00.946Z,32.90
2023-08-20T13:52:27.733Z,32.90
2023-08-20T13:54:54.539Z,32.72
2023-08-20T13:57:21.255Z,33.09
2023-08-20T13:59:48.002Z,33.18
2023-08-20T14:02:15.006Z,33.50
2023-08-20T14:04:41.688Z,33.34
2023-08-20T14:07:08.898Z,33.01
2023-08-20T14:09:37.593Z,32.47
2023-08-20T14:12:04.955Z,33.13
2023-08-20T14:14:32.133Z,33.05
2023-08-20T14:17:05.204Z,33.29
2023-08-20T14:19:32.015Z,32.78
2023-08-20T14:22:01.164Z,32.35
2023-08-20T14:24:28.109Z,32.26
2023-08-20T14:26:54.798Z,32.59
2023-08-20T14:29:21.677Z,32.51
2023-08-20T14:31:54.268Z,32.44
2023-08-20T14:34:21.291Z,32.15
2023-08-20T14:36:48.157Z,31.88
2023-08-20T14:39:15.232Z,32.26
2023-08-20T14:41:42.088Z,32.01
2023-08-20T14:44:08.869Z,32.09
2023-08-20T14:46:35.669Z,31.95
2023-08-20T14:49:02.733Z,32.33
2023-08-20T14:51:29.856Z,32.38
2023-08-20T14:54:00.147Z,32.29
2023-08-20T14:56:27.213Z,32.40
2023-08-20T14:58:54.288Z,32.21
2023-08-20T15:01:21.215Z,32.33
2023-08-20T15:03:47.945Z,32.45
2023-08-20T15:06:15.770Z,32.43
2023-08-20T15:08:42.629Z,32.47
2023-08-20T15:11:09.492Z,32.29
2023-08-20T15:13:36.900Z,32.11
2023-08-20T15:16:04.174Z,31.62
2023-08-20T15:18:32.556Z,31.85
2023-08-20T15:21:00.250Z,31.87
2023-08-20T15:23:28.936Z,31.51
2023-08-20T15:25:57.365Z,31.19
2023-08-20T15:28:26.726Z,31.69
2023-08-20T15:30:54.821Z,31.95
2023-08-20T15:33:21.901Z,32.27
2023-08-20T15:35:48.860Z,33.34
2023-08-20T15:38:16.645Z,32.99
2023-08-20T15:40:43.638Z,32.52
2023-08-20T15:43:12.628Z,32.74
2023-08-20T15:45:39.348Z,32.66
2023-08-20T15:48:06.946Z,32.61
2023-08-20T15:50:33.891Z,32.44
2023-08-20T15:53:06.353Z,31.76
2023-08-20T15:55:33.291Z,32.06
2023-08-20T15:58:00.034Z,31.68
2023-08-20T16:00:33.092Z,31.69
2023-08-20T16:03:05.947Z,31.19
2023-08-20T16:05:32.880Z,30.78
2023-08-20T16:07:59.946Z,30.74
2023-08-20T16:10:30.059Z,31.13
2023-08-20T16:12:56.757Z,31.39
2023-08-20T16:15:23.837Z,31.30
2023-08-20T16:17:50.800Z,30.98
2023-08-20T16:20:20.970Z,31.18
2023-08-20T16:22:47.743Z,30.50
2023-08-20T16:25:17.669Z,30.97
2023-08-20T16:27:45.143Z,31.09
2023-08-20T16:30:12.865Z,30.83
2023-08-20T16:32:40.026Z,30.71
2023-08-20T16:35:07.801Z,30.76
2023-08-20T16:37:35.532Z,30.35
2023-08-20T16:40:06.195Z,30.41
2023-08-20T16:42:33.025Z,30.22
2023-08-20T16:45:00.010Z,30.05
2023-08-20T16:47:26.716Z,30.02
2023-08-20T16:49:53.750Z,30.19
2023-08-20T16:52:21.785Z,30.24
2023-08-20T16:54:49.483Z,29.95
2023-08-20T16:57:16.235Z,29.87
2023-08-20T16:59:45.081Z,29.96
2023-08-20T17:02:14.738Z,29.56
2023-08-20T17:04:44.702Z,29.58
2023-08-20T17:07:11.843Z,29.82
2023-08-20T17:09:41.692Z,29.66
2023-08-20T17:12:14.281Z,29.67
2023-08-20T17:14:41.340Z,29.59
2023-08-20T17:17:08.725Z,29.25
2023-08-20T17:19:35.489Z,29.62
2023-08-20T17:22:02.493Z,29.51
2023-08-20T17:24:29.269Z,29.61
2023-08-20T17:26:56.027Z,29.51
2023-08-20T17:29:22.854Z,29.56
2023-08-20T17:31:52.646Z,29.55
2023-08-20T17:34:22.286Z,29.46
2023-08-20T17:36:49.740Z,29.44
2023-08-20T17:39:17.066Z,29.41
2023-08-20T17:41:44.270Z,28.98
2023-08-20T17:44:11.021Z,29.05
2023-08-20T17:46:49.624Z,29.14
2023-08-20T17:49:18.259Z,28.95
2023-08-20T17:51:45.340Z,28.69
2023-08-20T17:54:14.834Z,28.41
2023-08-20T17:56:41.810Z,28.72
2023-08-20T17:59:09.402Z,28.76
2023-08-20T18:01:36.374Z,28.84
2023-08-20T18:04:04.406Z,28.57
2023-08-20T18:06:35.037Z,28.80
2023-08-20T18:09:03.628Z,28.84
2023-08-20T18:11:30.676Z,28.82
2023-08-20T18:13:57.645Z,28.85
2023-08-20T18:16:24.416Z,29.02
2023-08-20T18:18:51.228Z,28.98
2023-08-20T18:21:17.937Z,28.96
2023-08-20T18:23:44.727Z,28.86
2023-08-20T18:26:13.168Z,28.69
2023-08-20T18:28:42.229Z,28.66
2023-08-20T18:31:12.336Z,28.43
2023-08-20T18:33:39.116Z,28.50
2023-08-20T18:36:07.792Z,28.64
2023-08-20T18:38:37.845Z,28.66
2023-08-20T18:41:08.346Z,28.63
2023-08-20T18:43:35.226Z,28.07
2023-08-20T18:46:03.782Z,28.29
2023-08-20T18:48:32.326Z,27.78
2023-08-20T18:51:02.002Z,28.15
2023-08-20T18:53:29.068Z,28.17
2023-08-20T18:55:55.919Z,27.83
2023-08-20T18:58:23.052Z,28.22
2023-08-20T19:00:50.063Z,28.04
2023-08-20T19:03:18.082Z,28.22
2023-08-20T19:05:53.805Z,28.22
2023-08-20T19:08:23.813Z,28.12
2023-08-20T19:10:52.353Z,28.09
2023-08-20T19:13:19.335Z,28.18
2023-08-20T19:15:47.589Z,28.07
2023-08-20T19:18:15.597Z,28.14
2023-08-20T19:20:50.216Z,28.16
2023-08-20T19:23:18.308Z,27.93
2023-08-20T19:25:45.560Z,28.21
2023-08-20T19:28:13.168Z,27.77
2023-08-20T19:30:50.094Z,28.18
2023-08-20T19:33:18.376Z,27.76
2023-08-20T19:35:45.996Z,28.04
2023-08-20T19:38:14.234Z,28.06
2023-08-20T19:40:45.951Z,28.07
2023-08-20T19:43:12.724Z,28.00
2023-08-20T19:45:39.409Z,28.00
2023-08-20T19:48:06.730Z,27.94
2023-08-20T19:50:36.458Z,27.86
2023-08-20T19:53:03.488Z,27.83
2023-08-20T19:55:30.523Z,27.85
2023-08-20T19:57:59.715Z,27.78
2023-08-20T20:00:26.655Z,27.56
2023-08-20T20:02:54.886Z,27.64
2023-08-20T20:05:22.566Z,27.48
2023-08-20T20:07:49.306Z,27.40
2023-08-20T20:10:16.572Z,27.29
2023-08-20T20:12:43.325Z,27.28
2023-08-20T20:15:14.009Z,27.13
2023-08-20T20:17:41.041Z,27.20
2023-08-20T20:20:12.288Z,26.97
2023-08-20T20:22:40.116Z,26.83
2023-08-20T20:25:07.263Z,26.97
2023-08-20T20:27:35.972Z,26.89
2023-08-20T20:30:07.219Z,26.76
2023-08-20T20:32:35.157Z,26.84
2023-08-20T20:35:02.570Z,26.68
2023-08-20T20:37:29.308Z,26.61
2023-08-20T20:39:56.566Z,26.56
2023-08-20T20:42:23.302Z,26.53
2023-08-20T20:44:50.551Z,26.60
2023-08-20T20:47:17.537Z,26.49
2023-08-20T20:49:46.838Z,26.47
2023-08-20T20:52:13.548Z,26.47
2023-08-20T20:54:40.280Z,26.11
2023-08-20T20:57:07.226Z,26.48
2023-08-20T20:59:36.385Z,26.32
2023-08-20T21:02:03.240Z,26.22
2023-08-20T21:04:30.414Z,26.28
2023-08-20T21:06:58.874Z,26.37
2023-08-20T21:09:25.813Z,26.25
2023-08-20T21:11:57.219Z,26.26
2023-08-20T21:14:26.844Z,26.18
2023-08-20T21:16:54.998Z,25.92
2023-08-20T21:19:21.730Z,26.18
2023-08-20T21:21:48.382Z,26.05
2023-08-20T21:24:15.857Z,25.94
2023-08-20T21:26:42.612Z,25.88
2023-08-20T21:29:09.622Z,25.91
2023-08-20T21:31:37.605Z,25.68
2023-08-20T21:34:04.338Z,25.72
2023-08-20T21:36:31.050Z,25.64
2023-08-20T21:39:01.232Z,25.51
2023-08-20T21:41:33.243Z,25.27
2023-08-20T21:44:00.530Z,25.43
2023-08-20T21:46:27.672Z,25.21
2023-08-20T21:48:57.240Z,25.13
2023-08-20T21:51:24.010Z,25.21
2023-08-20T21:53:56.687Z,24.79
2023-08-20T21:56:29.081Z,25.24
2023-08-20T21:58:58.944Z,25.54
2023-08-20T22:01:25.984Z,25.04
2023-08-20T22:03:52.910Z,25.33
2023-08-20T22:06:20.903Z,24.96
2023-08-20T22:08:48.282Z,25.47
2023-08-20T22:11:15.392Z,24.97
2023-08-20T22:13:47.204Z,25.15
2023-08-20T22:16:14.637Z,25.17
2023-08-20T22:18:53.097Z,24.95
2023-08-20T22:21:22.891Z,24.64
2023-08-20T22:23:50.183Z,24.97
2023-08-20T22:26:17.352Z,25.23
2023-08-20T22:28:44.332Z,25.33
2023-08-20T22:31:11.170Z,25.30
2023-08-20T22:33:38.126Z,25.29
2023-08-20T22:36:05.210Z,25.17
2023-08-20T22:38:32.320Z,25.04
2023-08-20T22:40:59.098Z,25.14
2023-08-20T22:43:25.945Z,25.02
2023-08-20T22:45:53.929Z,25.26
2023-08-20T22:48:21.160Z,25.20
2023-08-20T22:50:48.042Z,25.21
2023-08-20T22:53:14.941Z,24.92
2023-08-20T22:55:43.246Z,25.26
2023-08-20T22:58:09.993Z,24.86
2023-08-20T23:00:37.063Z,25.09
2023-08-20T23:03:04.139Z,24.91
2023-08-20T23:05:31.268Z,25.00
2023-08-20T23:07:58.111Z,24.98
2023-08-20T23:10:24.977Z,24.81
2023-08-20T23:12:51.767Z,24.76
2023-08-20T23:15:18.592Z,24.81
2023-08-20T23:17:45.473Z,24.73
2023-08-20T23:20:13.213Z,24.91
2023-08-20T23:22:40.156Z,24.78
2023-08-20T23:25:07.426Z,24.81
2023-08-20T23:27:34.162Z,24.83
2023-08-20T23:30:01.892Z,24.69
2023-08-20T23:32:28.696Z,24.55
2023-08-20T23:34:55.572Z,24.55
2023-08-20T23:37:25.225Z,24.61
2023-08-20T23:39:58.073Z,24.36
2023-08-20T23:42:27.923Z,24.65
2023-08-20T23:44:55.067Z,24.51
2023-08-20T23:47:22.034Z,24.68
2023-08-20T23:49:49.001Z,24.59
2023-08-20T23:52:15.906Z,24.41
2023-08-20T23:54:50.108Z,24.24
2023-08-20T23:57:17.075Z,23.87
2023-08-20T23:59:47.138Z,23.93
